sensor_id;sensor_type;location;lat;lon;timestamp;pressure;altitude;pressure_sealevel;temperature;humidity
75538;BME280;64121;48.666;8.114;2023-05-27T00:01:38;100613.50;;;14.56;69.00
75538;BME280;64121;48.666;8.114;2023-05-27T00:04:05;100607.91;;;14.56;68.60
75538;BME280;64121;48.666;8.114;2023-05-27T00:06:30;100608.44;;;14.62;68.31
75538;BME280;64121;48.666;8.114;2023-05-27T00:08:56;100609.06;;;14.55;68.13
75538;BME280;64121;48.666;8.114;2023-05-27T00:11:21;100611.22;;;14.62;68.13
75538;BME280;64121;48.666;8.114;2023-05-27T00:13:46;100608.22;;;14.39;68.57
75538;BME280;64121;48.666;8.114;2023-05-27T00:16:12;100603.56;;;14.31;69.18
75538;BME280;64121;48.666;8.114;2023-05-27T00:18:37;100608.72;;;14.29;68.99
75538;BME280;64121;48.666;8.114;2023-05-27T00:21:04;100607.81;;;14.24;69.02
75538;BME280;64121;48.666;8.114;2023-05-27T00:23:29;100610.97;;;14.23;69.42
75538;BME280;64121;48.666;8.114;2023-05-27T00:25:55;100608.00;;;14.16;69.46
75538;BME280;64121;48.666;8.114;2023-05-27T00:28:20;100609.75;;;14.08;69.52
75538;BME280;64121;48.666;8.114;2023-05-27T00:30:45;100601.00;;;14.10;69.27
75538;BME280;64121;48.666;8.114;2023-05-27T00:33:11;100605.06;;;14.12;69.21
75538;BME280;64121;48.666;8.114;2023-05-27T00:35:36;100609.16;;;14.15;68.75
75538;BME280;64121;48.666;8.114;2023-05-27T00:38:05;100604.06;;;14.05;68.86
75538;BME280;64121;48.666;8.114;2023-05-27T00:40:30;100609.31;;;14.06;68.88
75538;BME280;64121;48.666;8.114;2023-05-27T00:42:56;100604.53;;;14.07;68.44
75538;BME280;64121;48.666;8.114;2023-05-27T00:45:21;100606.78;;;14.01;68.45
75538;BME280;64121;48.666;8.114;2023-05-27T00:47:47;100603.16;;;14.01;68.79
75538;BME280;64121;48.666;8.114;2023-05-27T00:50:12;100603.06;;;13.97;68.35
75538;BME280;64121;48.666;8.114;2023-05-27T00:52:38;100609.03;;;13.96;68.75
75538;BME280;64121;48.666;8.114;2023-05-27T00:55:06;100600.31;;;13.85;69.04
75538;BME280;64121;48.666;8.114;2023-05-27T00:57:32;100603.91;;;13.85;69.07
75538;BME280;64121;48.666;8.114;2023-05-27T00:59:57;100600.22;;;13.81;69.08
75538;BME280;64121;48.666;8.114;2023-05-27T01:02:22;100605.22;;;13.76;68.97
75538;BME280;64121;48.666;8.114;2023-05-27T01:04:48;100605.84;;;13.69;69.08
75538;BME280;64121;48.666;8.114;2023-05-27T01:07:17;100599.53;;;13.72;69.07
75538;BME280;64121;48.666;8.114;2023-05-27T01:09:52;100602.84;;;13.62;69.38
75538;BME280;64121;48.666;8.114;2023-05-27T01:12:27;100605.88;;;13.57;69.86
75538;BME280;64121;48.666;8.114;2023-05-27T01:14:57;100606.84;;;13.49;69.87
75538;BME280;64121;48.666;8.114;2023-05-27T01:17:23;100610.19;;;13.54;69.02
75538;BME280;64121;48.666;8.114;2023-05-27T01:19:49;100600.06;;;13.50;69.38
75538;BME280;64121;48.666;8.114;2023-05-27T01:22:17;100598.81;;;13.47;69.39
75538;BME280;64121;48.666;8.114;2023-05-27T01:24:45;100606.97;;;13.40;69.70
75538;BME280;64121;48.666;8.114;2023-05-27T01:27:11;100595.47;;;13.29;70.40
75538;BME280;64121;48.666;8.114;2023-05-27T01:29:38;100596.06;;;13.23;71.19
75538;BME280;64121;48.666;8.114;2023-05-27T01:32:09;100597.41;;;13.17;71.29
75538;BME280;64121;48.666;8.114;2023-05-27T01:34:41;100588.47;;;13.11;71.05
75538;BME280;64121;48.666;8.114;2023-05-27T01:37:09;100591.88;;;13.04;72.08
75538;BME280;64121;48.666;8.114;2023-05-27T01:39:39;100581.03;;;12.91;73.06
75538;BME280;64121;48.666;8.114;2023-05-27T01:42:07;100588.84;;;12.85;72.76
75538;BME280;64121;48.666;8.114;2023-05-27T01:44:33;100574.06;;;12.85;71.83
75538;BME280;64121;48.666;8.114;2023-05-27T01:46:59;100577.22;;;12.83;71.59
75538;BME280;64121;48.666;8.114;2023-05-27T01:49:25;100579.41;;;12.78;72.55
75538;BME280;64121;48.666;8.114;2023-05-27T01:51:50;100577.88;;;12.80;71.90
75538;BME280;64121;48.666;8.114;2023-05-27T01:54:16;100578.59;;;12.77;71.85
75538;BME280;64121;48.666;8.114;2023-05-27T01:56:41;100584.88;;;12.74;72.02
75538;BME280;64121;48.666;8.114;2023-05-27T01:59:08;100580.47;;;12.73;71.82
75538;BME280;64121;48.666;8.114;2023-05-27T02:01:33;100581.63;;;12.72;71.53
75538;BME280;64121;48.666;8.114;2023-05-27T02:03:59;100571.38;;;12.76;70.66
75538;BME280;64121;48.666;8.114;2023-05-27T02:06:25;100563.00;;;12.76;71.23
75538;BME280;64121;48.666;8.114;2023-05-27T02:08:51;100578.94;;;12.63;72.04
75538;BME280;64121;48.666;8.114;2023-05-27T02:11:16;100569.28;;;12.61;71.71
75538;BME280;64121;48.666;8.114;2023-05-27T02:13:42;100573.03;;;12.65;71.43
75538;BME280;64121;48.666;8.114;2023-05-27T02:16:09;100575.69;;;12.61;71.72
75538;BME280;64121;48.666;8.114;2023-05-27T02:18:34;100565.69;;;12.72;71.14
75538;BME280;64121;48.666;8.114;2023-05-27T02:21:00;100565.44;;;12.78;70.94
75538;BME280;64121;48.666;8.114;2023-05-27T02:23:25;100564.38;;;12.82;70.69
75538;BME280;64121;48.666;8.114;2023-05-27T02:25:51;100558.59;;;12.87;69.19
75538;BME280;64121;48.666;8.114;2023-05-27T02:28:16;100556.38;;;12.81;70.46
75538;BME280;64121;48.666;8.114;2023-05-27T02:30:41;100570.56;;;12.76;70.46
75538;BME280;64121;48.666;8.114;2023-05-27T02:33:08;100557.28;;;12.60;70.89
75538;BME280;64121;48.666;8.114;2023-05-27T02:35:34;100559.63;;;12.70;70.54
75538;BME280;64121;48.666;8.114;2023-05-27T02:37:59;100560.91;;;12.61;70.77
75538;BME280;64121;48.666;8.114;2023-05-27T02:40:25;100548.34;;;12.55;71.69
75538;BME280;64121;48.666;8.114;2023-05-27T02:42:50;100555.91;;;12.54;71.35
75538;BME280;64121;48.666;8.114;2023-05-27T02:45:16;100551.50;;;12.53;71.19
75538;BME280;64121;48.666;8.114;2023-05-27T02:47:41;100553.22;;;12.58;70.42
75538;BME280;64121;48.666;8.114;2023-05-27T02:50:08;100546.16;;;12.48;71.08
75538;BME280;64121;48.666;8.114;2023-05-27T02:52:34;100552.41;;;12.57;70.27
75538;BME280;64121;48.666;8.114;2023-05-27T02:54:59;100547.19;;;12.68;70.48
75538;BME280;64121;48.666;8.114;2023-05-27T02:57:25;100545.44;;;12.63;69.76
75538;BME280;64121;48.666;8.114;2023-05-27T02:59:50;100553.00;;;12.63;69.76
75538;BME280;64121;48.666;8.114;2023-05-27T03:02:16;100554.28;;;12.53;70.05
75538;BME280;64121;48.666;8.114;2023-05-27T03:04:41;100544.28;;;12.52;70.00
75538;BME280;64121;48.666;8.114;2023-05-27T03:07:08;100547.53;;;12.54;70.86
75538;BME280;64121;48.666;8.114;2023-05-27T03:09:33;100548.78;;;12.44;70.93
75538;BME280;64121;48.666;8.114;2023-05-27T03:11:59;100555.19;;;12.45;70.72
75538;BME280;64121;48.666;8.114;2023-05-27T03:14:24;100553.78;;;12.39;71.14
75538;BME280;64121;48.666;8.114;2023-05-27T03:16:50;100556.59;;;12.39;70.33
75538;BME280;64121;48.666;8.114;2023-05-27T03:19:15;100563.25;;;12.47;71.12
75538;BME280;64121;48.666;8.114;2023-05-27T03:21:41;100567.06;;;12.30;71.07
75538;BME280;64121;48.666;8.114;2023-05-27T03:24:08;100558.88;;;12.25;71.29
75538;BME280;64121;48.666;8.114;2023-05-27T03:26:33;100569.97;;;12.33;71.10
75538;BME280;64121;48.666;8.114;2023-05-27T03:28:59;100562.13;;;12.27;71.46
75538;BME280;64121;48.666;8.114;2023-05-27T03:31:24;100570.41;;;12.23;71.11
75538;BME280;64121;48.666;8.114;2023-05-27T03:33:50;100580.50;;;12.16;71.79
75538;BME280;64121;48.666;8.114;2023-05-27T03:36:15;100571.31;;;12.15;72.13
75538;BME280;64121;48.666;8.114;2023-05-27T03:38:41;100571.53;;;12.10;72.36
75538;BME280;64121;48.666;8.114;2023-05-27T03:41:07;100563.47;;;11.96;73.07
75538;BME280;64121;48.666;8.114;2023-05-27T03:43:33;100573.59;;;12.01;72.68
75538;BME280;64121;48.666;8.114;2023-05-27T03:45:58;100572.91;;;12.04;72.23
75538;BME280;64121;48.666;8.114;2023-05-27T03:48:24;100577.53;;;12.00;72.36
75538;BME280;64121;48.666;8.114;2023-05-27T03:50:49;100572.31;;;11.98;72.49
75538;BME280;64121;48.666;8.114;2023-05-27T03:53:14;100569.06;;;11.96;73.10
75538;BME280;64121;48.666;8.114;2023-05-27T03:55:40;100574.34;;;12.10;72.03
75538;BME280;64121;48.666;8.114;2023-05-27T03:58:07;100570.38;;;12.11;74.45
75538;BME280;64121;48.666;8.114;2023-05-27T04:00:32;100578.72;;;11.99;74.39
75538;BME280;64121;48.666;8.114;2023-05-27T04:02:58;100574.59;;;11.84;75.22
75538;BME280;64121;48.666;8.114;2023-05-27T04:05:23;100575.13;;;11.77;75.50
75538;BME280;64121;48.666;8.114;2023-05-27T04:07:49;100576.22;;;11.85;75.73
75538;BME280;64121;48.666;8.114;2023-05-27T04:10:14;100577.03;;;11.86;75.89
75538;BME280;64121;48.666;8.114;2023-05-27T04:12:40;100582.06;;;11.71;78.20
75538;BME280;64121;48.666;8.114;2023-05-27T04:15:07;100582.19;;;11.75;76.80
75538;BME280;64121;48.666;8.114;2023-05-27T04:17:33;100572.59;;;11.85;76.91
75538;BME280;64121;48.666;8.114;2023-05-27T04:19:58;100573.53;;;11.89;77.49
75538;BME280;64121;48.666;8.114;2023-05-27T04:22:24;100574.47;;;11.80;77.49
75538;BME280;64121;48.666;8.114;2023-05-27T04:24:50;100575.06;;;11.86;77.21
75538;BME280;64121;48.666;8.114;2023-05-27T04:27:16;100581.78;;;11.85;76.92
75538;BME280;64121;48.666;8.114;2023-05-27T04:29:41;100566.16;;;11.93;77.89
75538;BME280;64121;48.666;8.114;2023-05-27T04:32:08;100570.03;;;11.79;77.13
75538;BME280;64121;48.666;8.114;2023-05-27T04:34:33;100572.13;;;11.82;77.42
75538;BME280;64121;48.666;8.114;2023-05-27T04:36:59;100572.19;;;11.95;76.75
75538;BME280;64121;48.666;8.114;2023-05-27T04:39:24;100576.38;;;12.01;76.59
75538;BME280;64121;48.666;8.114;2023-05-27T04:41:49;100577.97;;;11.90;77.43
75538;BME280;64121;48.666;8.114;2023-05-27T04:44:15;100578.13;;;11.93;77.64
75538;BME280;64121;48.666;8.114;2023-05-27T04:46:40;100574.53;;;12.05;77.64
75538;BME280;64121;48.666;8.114;2023-05-27T04:49:07;100578.75;;;12.11;77.40
75538;BME280;64121;48.666;8.114;2023-05-27T04:51:32;100576.78;;;12.24;77.09
75538;BME280;64121;48.666;8.114;2023-05-27T04:53:58;100584.75;;;13.31;74.67
75538;BME280;64121;48.666;8.114;2023-05-27T04:56:23;100581.59;;;14.76;67.02
75538;BME280;64121;48.666;8.114;2023-05-27T04:58:49;100581.00;;;15.72;62.99
75538;BME280;64121;48.666;8.114;2023-05-27T05:01:15;100583.47;;;16.16;60.44
75538;BME280;64121;48.666;8.114;2023-05-27T05:03:40;100576.44;;;16.26;59.03
75538;BME280;64121;48.666;8.114;2023-05-27T05:06:07;100580.25;;;17.32;56.38
75538;BME280;64121;48.666;8.114;2023-05-27T05:08:33;100595.50;;;17.61;55.12
75538;BME280;64121;48.666;8.114;2023-05-27T05:10:59;100592.78;;;17.38;55.92
75538;BME280;64121;48.666;8.114;2023-05-27T05:13:24;100590.34;;;17.37;55.56
75538;BME280;64121;48.666;8.114;2023-05-27T05:15:49;100585.31;;;16.51;58.23
75538;BME280;64121;48.666;8.114;2023-05-27T05:18:15;100594.22;;;16.76;56.67
75538;BME280;64121;48.666;8.114;2023-05-27T05:20:40;100586.38;;;16.20;58.08
75538;BME280;64121;48.666;8.114;2023-05-27T05:23:08;100590.75;;;15.79;58.80
75538;BME280;64121;48.666;8.114;2023-05-27T05:25:33;100588.53;;;15.68;60.04
75538;BME280;64121;48.666;8.114;2023-05-27T05:27:59;100582.50;;;15.66;60.02
75538;BME280;64121;48.666;8.114;2023-05-27T05:30:24;100587.50;;;15.41;60.33
75538;BME280;64121;48.666;8.114;2023-05-27T05:32:50;100586.16;;;15.16;61.97
75538;BME280;64121;48.666;8.114;2023-05-27T05:35:15;100579.72;;;15.15;62.32
75538;BME280;64121;48.666;8.114;2023-05-27T05:37:40;100595.25;;;15.29;61.45
75538;BME280;64121;48.666;8.114;2023-05-27T05:40:09;100588.13;;;15.15;62.68
75538;BME280;64121;48.666;8.114;2023-05-27T05:42:35;100591.69;;;15.12;62.12
75538;BME280;64121;48.666;8.114;2023-05-27T05:45:00;100585.50;;;14.88;62.95
75538;BME280;64121;48.666;8.114;2023-05-27T05:47:25;100590.81;;;14.77;63.73
75538;BME280;64121;48.666;8.114;2023-05-27T05:49:51;100587.25;;;15.11;62.53
75538;BME280;64121;48.666;8.114;2023-05-27T05:52:16;100578.16;;;14.67;63.55
75538;BME280;64121;48.666;8.114;2023-05-27T05:54:42;100589.88;;;15.04;63.26
75538;BME280;64121;48.666;8.114;2023-05-27T05:57:08;100583.75;;;14.83;63.98
75538;BME280;64121;48.666;8.114;2023-05-27T05:59:34;100581.22;;;14.94;63.43
75538;BME280;64121;48.666;8.114;2023-05-27T06:01:59;100584.63;;;14.87;64.47
75538;BME280;64121;48.666;8.114;2023-05-27T06:04:25;100585.34;;;15.15;64.09
75538;BME280;64121;48.666;8.114;2023-05-27T06:06:50;100585.22;;;14.77;63.49
75538;BME280;64121;48.666;8.114;2023-05-27T06:09:16;100583.41;;;15.20;63.65
75538;BME280;64121;48.666;8.114;2023-05-27T06:11:41;100587.63;;;15.45;62.26
75538;BME280;64121;48.666;8.114;2023-05-27T06:14:08;100594.63;;;15.55;61.32
75538;BME280;64121;48.666;8.114;2023-05-27T06:16:33;100590.97;;;15.70;61.95
75538;BME280;64121;48.666;8.114;2023-05-27T06:18:59;100589.50;;;15.76;62.29
75538;BME280;64121;48.666;8.114;2023-05-27T06:21:24;100591.28;;;15.65;61.33
75538;BME280;64121;48.666;8.114;2023-05-27T06:23:50;100598.91;;;15.84;61.18
75538;BME280;64121;48.666;8.114;2023-05-27T06:26:15;100603.50;;;16.15;60.37
75538;BME280;64121;48.666;8.114;2023-05-27T06:28:40;100595.63;;;16.01;60.67
75538;BME280;64121;48.666;8.114;2023-05-27T06:31:07;100595.41;;;16.10;59.91
75538;BME280;64121;48.666;8.114;2023-05-27T06:33:33;100596.31;;;16.37;60.28
75538;BME280;64121;48.666;8.114;2023-05-27T06:35:58;100589.25;;;16.46;60.64
75538;BME280;64121;48.666;8.114;2023-05-27T06:38:24;100587.97;;;16.40;60.21
75538;BME280;64121;48.666;8.114;2023-05-27T06:40:49;100586.50;;;16.50;58.05
75538;BME280;64121;48.666;8.114;2023-05-27T06:43:15;100594.31;;;16.37;58.46
75538;BME280;64121;48.666;8.114;2023-05-27T06:45:40;100588.88;;;16.48;58.66
75538;BME280;64121;48.666;8.114;2023-05-27T06:48:07;100591.28;;;16.69;58.11
75538;BME280;64121;48.666;8.114;2023-05-27T06:50:33;100587.31;;;16.50;60.14
75538;BME280;64121;48.666;8.114;2023-05-27T06:52:59;100591.00;;;16.74;58.08
75538;BME280;64121;48.666;8.114;2023-05-27T06:55:25;100587.31;;;16.50;58.78
75538;BME280;64121;48.666;8.114;2023-05-27T06:57:50;100588.03;;;16.67;60.01
75538;BME280;64121;48.666;8.114;2023-05-27T07:00:16;100592.81;;;16.89;58.87
75538;BME280;64121;48.666;8.114;2023-05-27T07:02:42;100587.28;;;16.70;58.77
75538;BME280;64121;48.666;8.114;2023-05-27T07:05:08;100601.00;;;17.24;57.68
75538;BME280;64121;48.666;8.114;2023-05-27T07:07:34;100597.78;;;17.22;58.16
75538;BME280;64121;48.666;8.114;2023-05-27T07:09:59;100598.31;;;17.31;57.78
75538;BME280;64121;48.666;8.114;2023-05-27T07:12:25;100605.22;;;17.37;57.17
75538;BME280;64121;48.666;8.114;2023-05-27T07:14:50;100604.22;;;17.49;56.70
75538;BME280;64121;48.666;8.114;2023-05-27T07:17:16;100609.97;;;17.30;56.56
75538;BME280;64121;48.666;8.114;2023-05-27T07:19:41;100608.56;;;17.46;56.40
75538;BME280;64121;48.666;8.114;2023-05-27T07:22:08;100610.09;;;17.40;56.25
75538;BME280;64121;48.666;8.114;2023-05-27T07:24:33;100613.25;;;17.92;55.14
75538;BME280;64121;48.666;8.114;2023-05-27T07:26:59;100603.06;;;17.83;55.52
75538;BME280;64121;48.666;8.114;2023-05-27T07:29:25;100604.00;;;17.95;54.03
75538;BME280;64121;48.666;8.114;2023-05-27T07:31:50;100603.22;;;17.94;55.38
75538;BME280;64121;48.666;8.114;2023-05-27T07:34:16;100603.50;;;18.19;54.26
75538;BME280;64121;48.666;8.114;2023-05-27T07:36:41;100613.59;;;18.61;53.31
75538;BME280;64121;48.666;8.114;2023-05-27T07:39:08;100599.41;;;18.50;53.50
75538;BME280;64121;48.666;8.114;2023-05-27T07:41:33;100603.34;;;18.79;52.67
75538;BME280;64121;48.666;8.114;2023-05-27T07:43:59;100594.03;;;18.38;53.55
75538;BME280;64121;48.666;8.114;2023-05-27T07:46:24;100590.94;;;18.50;53.18
75538;BME280;64121;48.666;8.114;2023-05-27T07:48:50;100585.63;;;18.41;52.93
75538;BME280;64121;48.666;8.114;2023-05-27T07:51:15;100582.06;;;18.48;53.37
75538;BME280;64121;48.666;8.114;2023-05-27T07:53:41;100586.06;;;18.84;52.70
75538;BME280;64121;48.666;8.114;2023-05-27T07:56:07;100582.84;;;18.89;51.93
75538;BME280;64121;48.666;8.114;2023-05-27T07:58:33;100586.44;;;18.83;52.51
75538;BME280;64121;48.666;8.114;2023-05-27T08:00:58;100587.84;;;19.10;51.99
75538;BME280;64121;48.666;8.114;2023-05-27T08:03:24;100586.44;;;19.41;51.36
75538;BME280;64121;48.666;8.114;2023-05-27T08:05:50;100588.41;;;19.33;51.59
75538;BME280;64121;48.666;8.114;2023-05-27T08:08:15;100584.84;;;19.47;51.06
75538;BME280;64121;48.666;8.114;2023-05-27T08:10:40;100580.09;;;19.55;50.14
75538;BME280;64121;48.666;8.114;2023-05-27T08:13:07;100586.34;;;19.27;51.32
75538;BME280;64121;48.666;8.114;2023-05-27T08:15:33;100573.97;;;19.49;52.02
75538;BME280;64121;48.666;8.114;2023-05-27T08:17:58;100570.59;;;19.95;51.71
75538;BME280;64121;48.666;8.114;2023-05-27T08:20:24;100573.03;;;19.96;49.77
75538;BME280;64121;48.666;8.114;2023-05-27T08:22:49;100568.53;;;19.85;50.27
75538;BME280;64121;48.666;8.114;2023-05-27T08:25:15;100566.31;;;20.62;48.90
75538;BME280;64121;48.666;8.114;2023-05-27T08:27:45;100559.44;;;21.02;49.38
75538;BME280;64121;48.666;8.114;2023-05-27T08:30:13;100564.69;;;21.03;47.67
75538;BME280;64121;48.666;8.114;2023-05-27T08:32:39;100553.78;;;21.02;47.92
75538;BME280;64121;48.666;8.114;2023-05-27T08:35:05;100552.56;;;20.96;48.13
75538;BME280;64121;48.666;8.114;2023-05-27T08:37:30;100540.84;;;20.44;49.25
75538;BME280;64121;48.666;8.114;2023-05-27T08:39:56;100549.69;;;20.39;48.82
75538;BME280;64121;48.666;8.114;2023-05-27T08:42:21;100541.66;;;20.62;48.56
75538;BME280;64121;48.666;8.114;2023-05-27T08:44:47;100542.78;;;20.08;49.36
75538;BME280;64121;48.666;8.114;2023-05-27T08:47:14;100531.94;;;20.27;49.10
75538;BME280;64121;48.666;8.114;2023-05-27T08:49:40;100534.41;;;20.68;48.61
75538;BME280;64121;48.666;8.114;2023-05-27T08:52:06;100550.97;;;20.52;49.08
75538;BME280;64121;48.666;8.114;2023-05-27T08:54:34;100541.69;;;20.73;48.25
75538;BME280;64121;48.666;8.114;2023-05-27T08:57:03;100544.50;;;20.73;48.97
75538;BME280;64121;48.666;8.114;2023-05-27T08:59:31;100540.81;;;21.22;47.17
75538;BME280;64121;48.666;8.114;2023-05-27T09:01:57;100529.94;;;20.81;48.48
75538;BME280;64121;48.666;8.114;2023-05-27T09:04:24;100538.78;;;21.23;47.90
75538;BME280;64121;48.666;8.114;2023-05-27T09:06:50;100528.25;;;21.20;47.54
75538;BME280;64121;48.666;8.114;2023-05-27T09:09:17;100531.91;;;21.31;47.34
75538;BME280;64121;48.666;8.114;2023-05-27T09:11:43;100526.25;;;21.31;47.13
75538;BME280;64121;48.666;8.114;2023-05-27T09:14:12;100529.03;;;21.49;47.03
75538;BME280;64121;48.666;8.114;2023-05-27T09:16:44;100514.53;;;21.14;48.21
75538;BME280;64121;48.666;8.114;2023-05-27T09:19:19;100521.44;;;20.96;48.91
75538;BME280;64121;48.666;8.114;2023-05-27T09:21:46;100526.69;;;21.26;47.62
75538;BME280;64121;48.666;8.114;2023-05-27T09:24:12;100520.22;;;21.11;47.52
75538;BME280;64121;48.666;8.114;2023-05-27T09:26:38;100507.88;;;21.78;46.76
75538;BME280;64121;48.666;8.114;2023-05-27T09:29:05;100506.81;;;22.24;47.14
75538;BME280;64121;48.666;8.114;2023-05-27T09:31:31;100515.84;;;22.60;45.89
75538;BME280;64121;48.666;8.114;2023-05-27T09:33:56;100507.34;;;21.94;46.20
75538;BME280;64121;48.666;8.114;2023-05-27T09:36:22;100504.75;;;22.28;45.43
75538;BME280;64121;48.666;8.114;2023-05-27T09:38:49;100511.94;;;22.43;45.56
75538;BME280;64121;48.666;8.114;2023-05-27T09:41:23;100492.47;;;21.83;46.25
75538;BME280;64121;48.666;8.114;2023-05-27T09:43:53;100503.06;;;21.64;46.40
75538;BME280;64121;48.666;8.114;2023-05-27T09:46:19;100497.97;;;22.11;46.19
75538;BME280;64121;48.666;8.114;2023-05-27T09:48:44;100497.66;;;21.95;46.38
75538;BME280;64121;48.666;8.114;2023-05-27T09:51:10;100493.56;;;22.06;46.56
75538;BME280;64121;48.666;8.114;2023-05-27T09:53:37;100487.44;;;22.15;46.39
75538;BME280;64121;48.666;8.114;2023-05-27T09:56:04;100489.44;;;22.18;45.98
75538;BME280;64121;48.666;8.114;2023-05-27T09:58:30;100485.25;;;22.37;45.26
75538;BME280;64121;48.666;8.114;2023-05-27T10:00:55;100481.84;;;22.56;45.79
75538;BME280;64121;48.666;8.114;2023-05-27T10:03:22;100469.44;;;22.81;45.06
75538;BME280;64121;48.666;8.114;2023-05-27T10:05:49;100478.94;;;23.05;44.02
75538;BME280;64121;48.666;8.114;2023-05-27T10:08:15;100484.84;;;23.21;43.79
75538;BME280;64121;48.666;8.114;2023-05-27T10:10:40;100473.34;;;22.98;44.61
75538;BME280;64121;48.666;8.114;2023-05-27T10:13:07;100464.19;;;23.20;44.38
75538;BME280;64121;48.666;8.114;2023-05-27T10:15:34;100456.47;;;23.21;44.59
75538;BME280;64121;48.666;8.114;2023-05-27T10:18:02;100456.25;;;23.05;44.91
75538;BME280;64121;48.666;8.114;2023-05-27T10:20:29;100455.91;;;22.99;45.09
75538;BME280;64121;48.666;8.114;2023-05-27T10:22:56;100457.22;;;22.91;44.59
75538;BME280;64121;48.666;8.114;2023-05-27T10:25:35;100453.41;;;22.63;44.21
75538;BME280;64121;48.666;8.114;2023-05-27T10:28:00;100453.97;;;22.92;44.42
75538;BME280;64121;48.666;8.114;2023-05-27T10:30:27;100447.94;;;23.24;44.81
75538;BME280;64121;48.666;8.114;2023-05-27T10:32:53;100439.69;;;23.34;43.97
75538;BME280;64121;48.666;8.114;2023-05-27T10:35:19;100447.19;;;23.17;44.73
75538;BME280;64121;48.666;8.114;2023-05-27T10:37:46;100453.72;;;23.48;43.68
75538;BME280;64121;48.666;8.114;2023-05-27T10:40:12;100434.31;;;23.43;42.97
75538;BME280;64121;48.666;8.114;2023-05-27T10:42:37;100434.59;;;23.18;44.30
75538;BME280;64121;48.666;8.114;2023-05-27T10:45:08;100443.09;;;23.52;43.98
75538;BME280;64121;48.666;8.114;2023-05-27T10:47:38;100425.94;;;23.90;44.21
75538;BME280;64121;48.666;8.114;2023-05-27T10:50:11;100432.53;;;24.37;44.25
75538;BME280;64121;48.666;8.114;2023-05-27T10:52:37;100430.28;;;23.98;43.75
75538;BME280;64121;48.666;8.114;2023-05-27T10:55:03;100436.78;;;23.71;42.50
75538;BME280;64121;48.666;8.114;2023-05-27T10:57:30;100427.25;;;23.85;43.07
75538;BME280;64121;48.666;8.114;2023-05-27T11:00:00;100423.88;;;24.17;42.87
75538;BME280;64121;48.666;8.114;2023-05-27T11:02:29;100426.81;;;23.86;43.88
75538;BME280;64121;48.666;8.114;2023-05-27T11:04:56;100429.16;;;23.92;43.09
75538;BME280;64121;48.666;8.114;2023-05-27T11:07:22;100425.13;;;24.16;43.22
75538;BME280;64121;48.666;8.114;2023-05-27T11:09:53;100425.81;;;23.97;43.36
75538;BME280;64121;48.666;8.114;2023-05-27T11:12:20;100418.03;;;24.28;42.09
75538;BME280;64121;48.666;8.114;2023-05-27T11:14:47;100422.50;;;24.29;43.25
75538;BME280;64121;48.666;8.114;2023-05-27T11:17:13;100414.88;;;24.22;42.85
75538;BME280;64121;48.666;8.114;2023-05-27T11:19:39;100406.63;;;23.77;43.23
75538;BME280;64121;48.666;8.114;2023-05-27T11:22:06;100396.50;;;24.03;43.13
75538;BME280;64121;48.666;8.114;2023-05-27T11:24:32;100395.06;;;24.15;42.83
75538;BME280;64121;48.666;8.114;2023-05-27T11:26:57;100386.13;;;24.63;42.76
75538;BME280;64121;48.666;8.114;2023-05-27T11:29:22;100376.94;;;24.32;43.04
75538;BME280;64121;48.666;8.114;2023-05-27T11:31:48;100374.72;;;24.16;42.13
75538;BME280;64121;48.666;8.114;2023-05-27T11:34:14;100368.06;;;24.27;43.31
75538;BME280;64121;48.666;8.114;2023-05-27T11:36:40;100372.41;;;24.58;42.25
75538;BME280;64121;48.666;8.114;2023-05-27T11:39:10;100362.28;;;24.77;40.85
75538;BME280;64121;48.666;8.114;2023-05-27T11:41:47;100360.88;;;23.95;42.18
75538;BME280;64121;48.666;8.114;2023-05-27T11:44:13;100354.28;;;24.49;42.24
75538;BME280;64121;48.666;8.114;2023-05-27T11:46:40;100347.13;;;25.03;41.32
75538;BME280;64121;48.666;8.114;2023-05-27T11:49:08;100360.34;;;25.14;40.44
75538;BME280;64121;48.666;8.114;2023-05-27T11:51:34;100345.81;;;24.45;41.50
75538;BME280;64121;48.666;8.114;2023-05-27T11:54:01;100346.53;;;24.92;41.46
75538;BME280;64121;48.666;8.114;2023-05-27T11:56:28;100344.34;;;25.20;41.53
75538;BME280;64121;48.666;8.114;2023-05-27T11:58:54;100338.81;;;25.13;40.66
75538;BME280;64121;48.666;8.114;2023-05-27T12:01:19;100335.28;;;24.85;40.74
75538;BME280;64121;48.666;8.114;2023-05-27T12:03:45;100343.81;;;24.85;41.95
75538;BME280;64121;48.666;8.114;2023-05-27T12:06:10;100336.75;;;25.13;41.31
75538;BME280;64121;48.666;8.114;2023-05-27T12:08:36;100326.81;;;24.82;41.20
75538;BME280;64121;48.666;8.114;2023-05-27T12:11:01;100322.91;;;24.52;41.32
75538;BME280;64121;48.666;8.114;2023-05-27T12:13:28;100313.88;;;24.97;41.06
75538;BME280;64121;48.666;8.114;2023-05-27T12:15:53;100313.47;;;24.59;41.47
75538;BME280;64121;48.666;8.114;2023-05-27T12:18:19;100320.50;;;24.51;42.13
75538;BME280;64121;48.666;8.114;2023-05-27T12:20:44;100309.44;;;24.76;40.80
75538;BME280;64121;48.666;8.114;2023-05-27T12:23:10;100310.31;;;24.93;41.48
75538;BME280;64121;48.666;8.114;2023-05-27T12:25:35;100312.50;;;24.85;41.11
75538;BME280;64121;48.666;8.114;2023-05-27T12:28:00;100309.66;;;24.85;41.22
75538;BME280;64121;48.666;8.114;2023-05-27T12:30:28;100301.09;;;24.45;41.07
75538;BME280;64121;48.666;8.114;2023-05-27T12:32:53;100291.13;;;24.37;41.69
75538;BME280;64121;48.666;8.114;2023-05-27T12:35:18;100300.25;;;24.68;41.75
75538;BME280;64121;48.666;8.114;2023-05-27T12:37:44;100285.66;;;24.46;42.66
75538;BME280;64121;48.666;8.114;2023-05-27T12:40:10;100290.66;;;24.98;42.24
75538;BME280;64121;48.666;8.114;2023-05-27T12:42:36;100293.72;;;24.88;41.16
75538;BME280;64121;48.666;8.114;2023-05-27T12:45:01;100282.34;;;25.08;40.91